createdAt,value
2022-12-16T00:01:17.258Z,99.90
2022-12-16T00:03:51.925Z,99.90
2022-12-16T00:06:21.539Z,99.90
2022-12-16T00:08:49.054Z,99.90
2022-12-16T00:11:16.362Z,99.90
2022-12-16T00:13:44.070Z,99.90
2022-12-16T00:16:15.105Z,99.90
2022-12-16T00:18:43.391Z,99.90
2022-12-16T00:21:11.412Z,99.90
2022-12-16T00:23:39.546Z,99.90
2022-12-16T00:26:07.444Z,99.90
2022-12-16T00:28:35.862Z,99.90
2022-12-16T00:31:04.220Z,99.90
2022-12-16T00:33:32.274Z,99.90
2022-12-16T00:35:59.965Z,99.90
2022-12-16T00:38:27.695Z,99.90
2022-12-16T00:40:55.151Z,99.90
2022-12-16T00:43:22.781Z,99.90
2022-12-16T00:45:51.903Z,99.90
2022-12-16T00:48:23.304Z,99.90
2022-12-16T00:50:55.030Z,99.90
2022-12-16T00:53:24.874Z,99.90
2022-12-16T00:56:18.368Z,99.90
2022-12-16T00:58:46.883Z,99.90
2022-12-16T01:01:15.129Z,99.90
2022-12-16T01:03:42.914Z,99.90
2022-12-16T01:06:14.615Z,99.90
2022-12-16T01:08:48.617Z,99.90
2022-12-16T01:11:19.185Z,99.90
2022-12-16T01:13:51.063Z,99.90
2022-12-16T01:16:19.936Z,99.90
2022-12-16T01:18:47.632Z,99.90
2022-12-16T01:21:15.769Z,99.90
2022-12-16T01:23:44.023Z,99.90
2022-12-16T01:26:18.745Z,99.90
2022-12-16T01:28:49.387Z,99.90
2022-12-16T01:31:21.396Z,99.90
2022-12-16T01:33:49.169Z,99.90
2022-12-16T01:36:17.346Z,99.90
2022-12-16T01:38:45.088Z,99.90
2022-12-16T01:41:15.472Z,99.90
2022-12-16T01:43:45.004Z,99.90
2022-12-16T01:46:12.444Z,99.90
2022-12-16T01:49:01.508Z,99.90
2022-12-16T01:51:37.712Z,99.90
2022-12-16T01:54:19.660Z,99.90
2022-12-16T01:56:55.617Z,99.90
2022-12-16T01:59:26.293Z,99.90
2022-12-16T02:01:54.216Z,99.90
2022-12-16T02:04:21.992Z,99.90
2022-12-16T02:06:49.787Z,99.90
2022-12-16T02:09:18.059Z,99.90
2022-12-16T02:12:08.063Z,99.90
2022-12-16T02:14:45.753Z,99.90
2022-12-16T02:17:33.289Z,99.90
2022-12-16T02:20:25.667Z,99.90
2022-12-16T02:23:56.603Z,99.90
2022-12-16T02:26:55.105Z,99.90
2022-12-16T02:30:19.013Z,99.90
2022-12-16T02:32:48.990Z,99.90
2022-12-16T02:35:28.144Z,99.90
2022-12-16T02:38:36.051Z,99.90
2022-12-16T02:41:28.286Z,99.90
2022-12-16T02:44:04.093Z,99.90
2022-12-16T02:46:34.227Z,99.90
2022-12-16T02:49:29.267Z,99.90
2022-12-16T02:52:00.056Z,99.90
2022-12-16T02:54:29.033Z,99.90
2022-12-16T02:57:26.501Z,99.90
2022-12-16T03:00:09.443Z,99.90
2022-12-16T03:03:02.000Z,99.90
2022-12-16T03:05:38.885Z,99.90
2022-12-16T03:08:13.739Z,99.90
2022-12-16T03:10:45.737Z,99.90
2022-12-16T03:13:14.787Z,99.90
2022-12-16T03:15:43.171Z,99.90
2022-12-16T03:18:12.502Z,99.90
2022-12-16T03:20:47.112Z,99.90
2022-12-16T03:23:28.420Z,99.90
2022-12-16T03:26:05.270Z,99.90
2022-12-16T03:29:26.383Z,99.90
2022-12-16T03:32:02.137Z,99.90
2022-12-16T03:35:13.604Z,99.90
2022-12-16T03:37:43.460Z,99.90
2022-12-16T03:40:12.328Z,99.90
2022-12-16T03:42:40.412Z,99.90
2022-12-16T03:45:12.882Z,99.90
2022-12-16T03:47:40.206Z,99.90
2022-12-16T03:50:07.736Z,99.90
2022-12-16T03:52:35.288Z,99.90
2022-12-16T03:55:02.749Z,99.90
2022-12-16T03:57:29.970Z,99.90
2022-12-16T03:59:57.325Z,99.90
2022-12-16T04:02:24.625Z,99.90
2022-12-16T04:04:51.957Z,99.90
2022-12-16T04:07:21.984Z,99.90
2022-12-16T04:09:50.829Z,99.90
2022-12-16T04:12:37.885Z,99.90
2022-12-16T04:15:25.348Z,99.90
2022-12-16T04:18:11.365Z,99.90
2022-12-16T04:21:02.651Z,99.90
2022-12-16T04:23:50.899Z,99.90
2022-12-16T04:26:18.109Z,99.90
2022-12-16T04:28:45.288Z,99.90
2022-12-16T04:31:12.468Z,99.90
2022-12-16T04:33:59.082Z,99.90
2022-12-16T04:36:45.089Z,99.90
2022-12-16T04:39:30.939Z,99.90
2022-12-16T04:42:16.819Z,99.90
2022-12-16T04:45:02.386Z,99.90
2022-12-16T04:47:49.431Z,99.90
2022-12-16T04:50:36.817Z,99.90
2022-12-16T04:53:22.371Z,99.90
2022-12-16T04:56:07.950Z,99.90
2022-12-16T04:58:53.429Z,99.90
2022-12-16T05:01:38.929Z,99.90
2022-12-16T05:04:24.663Z,99.90
2022-12-16T05:07:12.143Z,99.90
2022-12-16T05:09:57.735Z,99.90
2022-12-16T05:12:43.012Z,99.90
2022-12-16T05:15:28.988Z,99.90
2022-12-16T05:18:14.469Z,99.90
2022-12-16T05:21:00.392Z,99.90
2022-12-16T05:23:47.829Z,99.90
2022-12-16T05:26:33.445Z,99.90
2022-12-16T05:29:18.899Z,99.90
2022-12-16T05:32:04.811Z,99.90
2022-12-16T05:34:51.175Z,99.90
2022-12-16T05:37:37.328Z,99.90
2022-12-16T05:40:23.958Z,99.90
2022-12-16T05:43:14.919Z,99.90
2022-12-16T05:46:02.266Z,99.90
2022-12-16T05:48:48.312Z,99.90
2022-12-16T05:51:34.349Z,99.90
2022-12-16T05:54:19.894Z,99.90
2022-12-16T05:57:05.457Z,99.90
2022-12-16T05:59:50.937Z,99.90
2022-12-16T06:02:56.400Z,99.90
2022-12-16T06:05:42.261Z,99.90
2022-12-16T06:08:28.152Z,99.90
2022-12-16T06:11:13.856Z,99.90
2022-12-16T06:13:59.360Z,99.90
2022-12-16T06:16:44.855Z,99.90
2022-12-16T06:19:30.583Z,99.90
2022-12-16T06:22:16.130Z,99.90
2022-12-16T06:25:01.842Z,99.90
2022-12-16T06:27:47.819Z,99.90
2022-12-16T06:30:34.282Z,99.90
2022-12-16T06:33:19.805Z,99.90
2022-12-16T06:36:05.541Z,99.90
2022-12-16T06:38:51.506Z,99.90
2022-12-16T06:41:37.541Z,99.90
2022-12-16T06:44:23.452Z,99.90
2022-12-16T06:47:09.292Z,99.90
2022-12-16T06:49:55.391Z,99.90
2022-12-16T06:52:41.279Z,99.90
2022-12-16T06:55:27.473Z,99.90
2022-12-16T06:58:19.592Z,99.90
2022-12-16T07:01:04.980Z,99.90
2022-12-16T07:03:51.037Z,99.90
2022-12-16T07:06:37.101Z,99.90
2022-12-16T07:09:22.920Z,99.90
2022-12-16T07:12:08.536Z,99.90
2022-12-16T07:14:54.826Z,99.90
2022-12-16T07:17:40.349Z,99.90
2022-12-16T07:20:37.688Z,99.90
2022-12-16T07:23:23.337Z,99.90
2022-12-16T07:26:09.059Z,99.90
2022-12-16T07:28:54.608Z,99.90
2022-12-16T07:31:40.963Z,99.90
2022-12-16T07:34:27.023Z,99.90
2022-12-16T07:37:12.685Z,99.90
2022-12-16T07:39:58.272Z,99.90
2022-12-16T07:42:43.669Z,99.90
2022-12-16T07:45:29.971Z,99.90
2022-12-16T07:48:15.672Z,99.90
2022-12-16T07:51:01.950Z,99.90
2022-12-16T07:53:48.085Z,99.90
2022-12-16T07:56:34.058Z,99.90
2022-12-16T07:59:20.024Z,99.90
2022-12-16T08:02:05.634Z,99.90
2022-12-16T08:04:51.387Z,99.90
2022-12-16T08:07:37.420Z,99.90
2022-12-16T08:10:23.669Z,99.90
2022-12-16T08:13:09.112Z,99.90
2022-12-16T08:15:54.829Z,99.90
2022-12-16T08:19:04.891Z,99.90
2022-12-16T08:21:53.380Z,99.90
2022-12-16T08:24:38.733Z,99.90
2022-12-16T08:27:24.709Z,99.90
2022-12-16T08:30:10.346Z,99.90
2022-12-16T08:32:59.631Z,99.90
2022-12-16T08:35:47.437Z,99.90
2022-12-16T08:38:32.993Z,99.90
2022-12-16T08:41:18.444Z,99.90
2022-12-16T08:44:04.026Z,99.90
2022-12-16T08:46:49.366Z,99.90
2022-12-16T08:49:34.966Z,99.90
2022-12-16T08:52:20.476Z,99.90
2022-12-16T08:55:05.955Z,99.90
2022-12-16T08:57:51.596Z,99.90
2022-12-16T09:00:37.555Z,99.90
2022-12-16T09:03:23.414Z,99.90
2022-12-16T09:06:09.653Z,99.90
2022-12-16T09:08:55.439Z,99.90
2022-12-16T09:11:55.521Z,99.90
2022-12-16T09:14:41.626Z,99.90
2022-12-16T09:17:27.200Z,99.90
2022-12-16T09:20:12.985Z,99.90
2022-12-16T09:22:58.559Z,99.90
2022-12-16T09:25:44.146Z,99.90
2022-12-16T09:28:30.184Z,99.90
2022-12-16T09:31:15.765Z,99.90
2022-12-16T09:34:01.616Z,99.90
2022-12-16T09:36:47.269Z,99.90
2022-12-16T09:39:32.957Z,99.90
2022-12-16T09:42:48.551Z,99.90
2022-12-16T09:46:05.434Z,99.90
2022-12-16T09:49:31.674Z,99.90
2022-12-16T09:52:19.299Z,99.90
2022-12-16T09:55:06.825Z,99.90
2022-12-16T09:57:55.541Z,99.90
2022-12-16T10:00:45.730Z,99.90
2022-12-16T10:03:48.696Z,99.90
2022-12-16T10:07:07.031Z,99.90
2022-12-16T10:10:37.713Z,99.90
2022-12-16T10:13:38.195Z,99.90
2022-12-16T10:16:58.481Z,99.90
2022-12-16T10:20:25.378Z,99.90
2022-12-16T10:23:44.717Z,99.90
2022-12-16T10:26:45.125Z,99.90
2022-12-16T10:29:40.224Z,99.90
2022-12-16T10:32:59.127Z,99.90
2022-12-16T10:36:11.897Z,99.90
2022-12-16T10:39:10.826Z,99.90
2022-12-16T10:42:05.500Z,99.90
2022-12-16T10:45:13.770Z,99.90
2022-12-16T10:47:59.541Z,99.90
2022-12-16T10:50:45.196Z,99.90
2022-12-16T10:53:44.675Z,99.90
2022-12-16T10:56:53.923Z,99.90
2022-12-16T10:59:40.072Z,99.90
2022-12-16T11:02:40.349Z,99.90
2022-12-16T11:05:49.292Z,99.90
2022-12-16T11:08:55.717Z,99.90
2022-12-16T11:11:44.522Z,99.90
2022-12-16T11:15:05.445Z,99.90
2022-12-16T11:17:47.857Z,99.90
2022-12-16T11:20:39.085Z,99.90
2022-12-16T11:23:36.561Z,99.90
2022-12-16T11:26:35.956Z,99.90
2022-12-16T11:29:35.199Z,99.90
2022-12-16T11:32:44.301Z,99.90
2022-12-16T11:35:38.592Z,99.90
2022-12-16T11:38:40.708Z,99.90
2022-12-16T11:41:37.485Z,99.90
2022-12-16T11:44:24.086Z,99.90
2022-12-16T11:47:10.244Z,99.90
2022-12-16T11:49:55.886Z,99.90
2022-12-16T11:52:41.875Z,99.90
2022-12-16T11:59:07.241Z,99.90
2022-12-16T12:02:10.155Z,99.90
2022-12-16T12:04:55.871Z,99.90
2022-12-16T12:08:02.540Z,99.90
2022-12-16T12:11:32.084Z,99.90
2022-12-16T12:14:42.763Z,99.90
2022-12-16T12:18:00.943Z,99.90
2022-12-16T12:21:12.581Z,99.90
2022-12-16T12:24:25.197Z,99.90
2022-12-16T12:27:46.117Z,99.90
2022-12-16T12:30:39.533Z,99.90
2022-12-16T12:33:34.661Z,99.90
2022-12-16T12:36:40.879Z,99.90
2022-12-16T12:39:50.716Z,99.90
2022-12-16T12:42:49.700Z,99.90
2022-12-16T12:45:42.466Z,99.90
2022-12-16T12:48:41.223Z,99.90
2022-12-16T12:51:52.331Z,98.70
2022-12-16T12:55:04.150Z,97.30
2022-12-16T12:57:53.653Z,94.30
2022-12-16T13:00:43.268Z,93.20
2022-12-16T13:03:59.387Z,91.80
2022-12-16T13:06:46.649Z,92.40
2022-12-16T13:09:52.826Z,91.10
2022-12-16T13:12:46.564Z,89.20
2022-12-16T13:15:56.564Z,90.00
2022-12-16T13:18:48.984Z,87.90
2022-12-16T13:21:58.297Z,87.60
2022-12-16T13:24:56.397Z,90.00
2022-12-16T13:27:44.301Z,89.00
2022-12-16T13:30:30.212Z,89.30
2022-12-16T13:33:25.519Z,87.60
2022-12-16T13:36:17.254Z,89.80
2022-12-16T13:39:10.389Z,87.60
2022-12-16T13:41:56.214Z,86.90
2022-12-16T13:45:15.724Z,88.80
2022-12-16T13:48:01.069Z,89.40
2022-12-16T13:51:01.976Z,89.50
2022-12-16T13:53:58.346Z,88.80
2022-12-16T13:56:53.945Z,89.90
2022-12-16T13:59:58.274Z,90.50
2022-12-16T14:02:59.606Z,90.00
2022-12-16T14:05:55.278Z,91.20
2022-12-16T14:08:45.215Z,92.10
2022-12-16T14:12:04.536Z,91.70
2022-12-16T14:15:07.493Z,92.20
2022-12-16T14:18:11.486Z,94.40
2022-12-16T14:21:09.462Z,95.80
2022-12-16T14:24:08.607Z,97.80
2022-12-16T14:26:55.461Z,99.60
2022-12-16T14:29:48.579Z,99.90
2022-12-16T14:32:51.718Z,99.90
2022-12-16T14:35:44.194Z,99.90
2022-12-16T14:38:46.513Z,99.90
2022-12-16T14:41:41.247Z,99.90
2022-12-16T14:44:41.604Z,99.90
2022-12-16T14:47:37.633Z,99.90
2022-12-16T14:50:45.112Z,99.90
2022-12-16T14:53:36.232Z,99.90
2022-12-16T14:56:41.680Z,99.90
2022-12-16T14:59:36.437Z,99.90
2022-12-16T15:02:58.012Z,99.90
2022-12-16T15:05:52.160Z,99.90
2022-12-16T15:08:39.963Z,99.90
2022-12-16T15:11:30.734Z,99.90
2022-12-16T15:14:20.832Z,99.90
2022-12-16T15:17:08.871Z,99.90
2022-12-16T15:20:08.413Z,99.90
2022-12-16T15:22:55.054Z,99.90
2022-12-16T15:25:44.184Z,99.90
2022-12-16T15:28:58.483Z,99.90
2022-12-16T15:31:55.954Z,99.90
2022-12-16T15:35:07.784Z,99.90
2022-12-16T15:38:04.195Z,99.90
2022-12-16T15:40:52.989Z,99.90
2022-12-16T15:43:56.140Z,99.90
2022-12-16T15:46:47.998Z,99.90
2022-12-16T15:50:03.813Z,99.90
2022-12-16T15:53:03.203Z,99.90
2022-12-16T15:55:50.454Z,99.90
2022-12-16T15:58:50.756Z,99.90
2022-12-16T16:01:44.082Z,99.90
2022-12-16T16:04:49.186Z,99.90
2022-12-16T16:07:40.022Z,99.90
2022-12-16T16:10:42.257Z,99.90
2022-12-16T16:13:28.870Z,99.90
2022-12-16T16:16:15.173Z,99.90
2022-12-16T16:19:01.861Z,99.90
2022-12-16T16:21:48.595Z,99.90
2022-12-16T16:24:35.617Z,99.90
2022-12-16T16:27:24.220Z,99.90
2022-12-16T16:30:09.892Z,99.90
2022-12-16T16:32:55.280Z,99.90
2022-12-16T16:35:40.758Z,99.90
2022-12-16T16:38:29.882Z,99.90
2022-12-16T16:41:16.393Z,99.90
2022-12-16T16:44:02.359Z,99.90
2022-12-16T16:46:59.175Z,99.90
2022-12-16T16:49:58.553Z,99.90
2022-12-16T16:52:46.142Z,99.90
2022-12-16T16:55:42.865Z,99.90
2022-12-16T16:58:46.901Z,99.90
2022-12-16T17:01:35.763Z,99.90
2022-12-16T17:04:22.304Z,99.90
2022-12-16T17:07:08.489Z,99.90
2022-12-16T17:09:54.175Z,99.90
2022-12-16T17:12:45.639Z,99.90
2022-12-16T17:15:37.017Z,99.90
2022-12-16T17:18:24.143Z,99.90
2022-12-16T17:21:11.526Z,99.90
2022-12-16T17:23:57.828Z,99.90
2022-12-16T17:26:43.975Z,99.90
2022-12-16T17:29:40.725Z,99.90
2022-12-16T17:32:27.937Z,99.90
2022-12-16T17:35:15.662Z,99.90
2022-12-16T17:38:02.263Z,99.90
2022-12-16T17:40:48.433Z,99.90
2022-12-16T17:43:35.067Z,99.90
2022-12-16T17:46:30.315Z,99.90
2022-12-16T17:49:17.905Z,99.90
2022-12-16T17:52:05.759Z,99.90
2022-12-16T17:54:52.267Z,99.90
2022-12-16T17:57:37.863Z,99.90
2022-12-16T18:00:24.847Z,99.90
2022-12-16T18:03:10.619Z,99.90
2022-12-16T18:05:56.915Z,99.90
2022-12-16T18:08:42.511Z,99.90
2022-12-16T18:11:28.060Z,99.90
2022-12-16T18:14:13.520Z,99.90
2022-12-16T18:17:00.036Z,99.90
2022-12-16T18:19:45.755Z,99.90
2022-12-16T18:22:31.558Z,99.90
2022-12-16T18:25:17.611Z,99.90
2022-12-16T18:28:03.374Z,99.90
2022-12-16T18:30:48.977Z,99.90
2022-12-16T18:33:35.599Z,99.90
2022-12-16T18:36:25.296Z,99.90
2022-12-16T18:39:10.760Z,99.90
2022-12-16T18:42:04.425Z,99.90
2022-12-16T18:44:53.814Z,99.90
2022-12-16T18:47:48.295Z,99.90
2022-12-16T18:50:38.263Z,99.90
2022-12-16T18:53:25.218Z,99.90
2022-12-16T18:56:29.858Z,99.90
2022-12-16T18:59:15.304Z,99.90
2022-12-16T19:02:00.879Z,99.90
2022-12-16T19:04:46.864Z,99.90
2022-12-16T19:07:33.976Z,99.90
2022-12-16T19:10:19.684Z,99.90
2022-12-16T19:13:05.281Z,99.90
2022-12-16T19:15:50.798Z,99.90
2022-12-16T19:18:36.953Z,99.90
2022-12-16T19:21:23.890Z,99.90
2022-12-16T19:24:17.382Z,99.90
2022-12-16T19:27:07.259Z,99.90
2022-12-16T19:29:55.962Z,99.90
2022-12-16T19:32:41.632Z,99.90
2022-12-16T19:35:27.496Z,99.90
2022-12-16T19:38:13.678Z,99.90
2022-12-16T19:41:09.706Z,99.90
2022-12-16T19:43:58.803Z,99.90
2022-12-16T19:46:55.997Z,99.90
2022-12-16T19:52:48.435Z,99.90
2022-12-16T19:55:34.807Z,99.90
2022-12-16T19:58:20.525Z,99.90
2022-12-16T20:01:06.177Z,99.90
2022-12-16T20:03:52.372Z,99.90
2022-12-16T20:06:42.487Z,99.90
2022-12-16T20:09:31.444Z,99.90
2022-12-16T20:12:19.849Z,99.90
2022-12-16T20:15:06.497Z,99.90
2022-12-16T20:17:56.133Z,99.90
2022-12-16T20:20:44.785Z,99.90
2022-12-16T20:23:35.933Z,99.90
2022-12-16T20:26:22.417Z,99.90
2022-12-16T20:29:08.900Z,99.90
2022-12-16T20:31:58.457Z,99.90
2022-12-16T20:34:44.275Z,99.90
2022-12-16T20:37:30.173Z,99.90
2022-12-16T20:40:15.654Z,99.90
2022-12-16T20:43:01.822Z,99.90
2022-12-16T20:45:47.985Z,99.90
2022-12-16T20:48:35.044Z,99.90
2022-12-16T20:51:26.805Z,99.90
2022-12-16T20:54:27.114Z,99.90
2022-12-16T20:57:13.121Z,99.90
2022-12-16T20:59:59.935Z,99.90
2022-12-16T21:02:46.392Z,99.90
2022-12-16T21:05:32.873Z,99.90
2022-12-16T21:08:19.344Z,99.90
2022-12-16T21:11:05.805Z,99.90
2022-12-16T21:13:52.020Z,99.90
2022-12-16T21:16:38.450Z,99.90
2022-12-16T21:19:27.988Z,99.90
2022-12-16T21:22:19.434Z,99.90
2022-12-16T21:25:05.797Z,99.90
2022-12-16T21:27:51.671Z,99.90
2022-12-16T21:30:39.250Z,99.90
2022-12-16T21:33:24.983Z,99.90
2022-12-16T21:36:12.716Z,99.90
2022-12-16T21:39:09.467Z,99.90
2022-12-16T21:41:55.518Z,99.90
2022-12-16T21:44:42.552Z,99.90
2022-12-16T21:47:28.127Z,99.90
2022-12-16T21:50:14.520Z,99.90
2022-12-16T21:53:01.424Z,99.90
2022-12-16T21:55:47.130Z,99.90
2022-12-16T21:58:32.774Z,99.90
2022-12-16T22:01:18.643Z,99.90
2022-12-16T22:04:04.882Z,99.90
2022-12-16T22:06:51.236Z,99.90
2022-12-16T22:09:37.361Z,99.90
2022-12-16T22:12:23.655Z,99.90
2022-12-16T22:15:09.948Z,99.90
2022-12-16T22:21:19.981Z,99.90
2022-12-16T22:24:06.263Z,99.90
2022-12-16T22:26:52.504Z,99.90
2022-12-16T22:29:39.311Z,99.90
2022-12-16T22:32:26.052Z,99.90
2022-12-16T22:35:11.804Z,99.90
2022-12-16T22:37:57.996Z,99.90
2022-12-16T22:40:43.880Z,99.90
2022-12-16T22:43:29.882Z,99.90
2022-12-16T22:46:20.762Z,99.90
2022-12-16T22:49:07.189Z,99.90
2022-12-16T22:51:53.956Z,99.90
2022-12-16T22:54:40.297Z,99.90
2022-12-16T22:57:26.624Z,99.90
2022-12-16T23:00:12.897Z,99.90
2022-12-16T23:02:58.472Z,99.90
2022-12-16T23:05:44.218Z,99.90
2022-12-16T23:08:30.259Z,99.90
2022-12-16T23:11:18.338Z,99.90
2022-12-16T23:14:04.699Z,99.90
2022-12-16T23:16:50.918Z,99.90
2022-12-16T23:19:52.899Z,99.90
2022-12-16T23:22:56.448Z,99.90
2022-12-16T23:25:42.246Z,99.90
2022-12-16T23:28:28.527Z,99.90
2022-12-16T23:31:16.323Z,99.90
2022-12-16T23:34:02.942Z,99.90
2022-12-16T23:36:49.069Z,99.90
2022-12-16T23:39:35.389Z,99.90
2022-12-16T23:42:21.133Z,99.90
2022-12-16T23:45:06.762Z,99.90
2022-12-16T23:47:52.920Z,99.90
2022-12-16T23:50:42.097Z,99.90
2022-12-16T23:53:34.768Z,99.90
2022-12-16T23:56:21.210Z,99.90
2022-12-16T23:59:07.597Z,99.90
